Terminal Aerodrome Forecast
Issued by NWS Atlanta, GA

Home | Current Version | Previous Version | Text Only | Print | Product List | Glossary On
Versions: 1 2 3 4 5 6 7 8 9 10 11 12 13 14 15 16 17 18 19
000
FTUS42 KFFC 041130
TAFMCN
TAF
KMCN 041130Z 0412/0512 29003KT 6SM BR SKC
     FM041400 01004KT P6SM SCT040 SCT250
     FM041700 03005KT P6SM SCT050 BKN250
     FM050500 04003KT P6SM SCT110=

USA.gov is the U.S. government's official web portal to all federal, state and local government web resources and services.